| time (UTC) | temp C | wind direction | speed KPH | gust KPH | rain 1hr cm | rain 24hr cm | rain mn cm | humidity % | barometer mb |
| 20260507122724 | 11 | 237 | 3.2 | 4.8 | 0.00 | 0.05 | 0.03 | 86 | 1015.3 |
| 20260507121720 | 11 | 241 | 6.4 | 11.3 | 0.00 | 0.05 | 0.03 | 86 | 1015.1 |
| 20260507120717 | 11 | 223 | 6.4 | 12.9 | 0.00 | 0.05 | 0.03 | 85 | 1015.1 |
| 20260507115733 | 12 | 224 | 8.0 | 14.5 | 0.00 | 0.05 | 0.03 | 84 | 1015.0 |
| 20260507114730 | 11 | 221 | 6.4 | 11.3 | 0.00 | 0.05 | 0.03 | 85 | 1015.0 |
| 20260507113726 | 11 | 227 | 4.8 | 9.7 | 0.00 | 0.05 | 0.03 | 87 | 1015.0 |
| 20260507112723 | 11 | 237 | 4.8 | 6.4 | 0.00 | 0.05 | 0.03 | 88 | 1015.1 |
| 20260507111719 | 11 | 239 | 4.8 | 9.7 | 0.00 | 0.05 | 0.03 | 88 | 1015.0 |
| 20260507110735 | 11 | 208 | 4.8 | 9.7 | 0.00 | 0.05 | 0.03 | 88 | 1015.0 |
| 20260507105732 | 11 | 231 | 3.2 | 9.7 | 0.03 | 0.05 | 0.03 | 88 | 1014.8 |
| 20260507104728 | 11 | 243 | 4.8 | 6.4 | 0.03 | 0.05 | 0.03 | 90 | 1014.8 |
| 20260507103725 | 10 | 256 | 6.4 | 9.7 | 0.03 | 0.05 | 0.03 | 91 | 1015.0 |
| 20260507102721 | 10 | 246 | 8.0 | 11.3 | 0.03 | 0.05 | 0.03 | 92 | 1014.9 |
| 20260507101717 | 10 | 307 | 1.6 | 6.4 | 0.03 | 0.05 | 0.03 | 94 | 1014.8 |
| 20260507100734 | 10 | 265 | 4.8 | 6.4 | 0.03 | 0.05 | 0.03 | 94 | 1014.8 |
| 20260507095731 | 10 | 300 | 8.0 | 12.9 | 0.00 | 0.03 | 0.00 | 92 | 1014.7 |
| 20260507094727 | 10 | 286 | 4.8 | 9.7 | 0.00 | 0.03 | 0.00 | 90 | 1014.6 |
| 20260507093724 | 10 | 286 | 6.4 | 12.9 | 0.00 | 0.03 | 0.00 | 89 | 1014.4 |
| 20260507092720 | 10 | 286 | 6.4 | 12.9 | 0.00 | 0.03 | 0.00 | 89 | 1014.3 |
| 20260507091716 | 10 | 282 | 8.0 | 12.9 | 0.00 | 0.03 | 0.00 | 89 | 1014.3 |
| 20260507090733 | 10 | 303 | 8.0 | 14.5 | 0.00 | 0.03 | 0.00 | 91 | 1014.3 |
| 20260507085729 | 10 | 283 | 6.4 | 11.3 | 0.00 | 0.03 | 0.00 | 92 | 1014.2 |
| 20260507084726 | 9 | 293 | 8.0 | 12.9 | 0.00 | 0.03 | 0.00 | 94 | 1014.3 |
| 20260507083722 | 9 | 294 | 9.7 | 12.9 | 0.00 | 0.03 | 0.00 | 94 | 1014.0 |
| 20260507082719 | 9 | 305 | 8.0 | 12.9 | 0.00 | 0.03 | 0.00 | 95 | 1014.0 |
| 20260507081736 | 9 | 296 | 9.7 | 14.5 | 0.00 | 0.03 | 0.00 | 95 | 1013.9 |
| 20260507080732 | 9 | 304 | 9.7 | 14.5 | 0.00 | 0.03 | 0.00 | 93 | 1013.8 |
| 20260507075728 | 10 | 309 | 9.7 | 14.5 | 0.00 | 0.03 | 0.00 | 90 | 1013.6 |
| 20260507074725 | 10 | 310 | 6.4 | 11.3 | 0.00 | 0.03 | 0.00 | 89 | 1013.5 |
| 20260507073721 | 10 | 310 | 8.0 | 11.3 | 0.00 | 0.03 | 0.00 | 88 | 1013.3 |
| 20260507072717 | 10 | 306 | 8.0 | 11.3 | 0.00 | 0.03 | 0.00 | 88 | 1013.3 |
| 20260507071734 | 10 | 293 | 8.0 | 14.5 | 0.00 | 0.03 | 0.00 | 88 | 1013.2 |
| 20260507070731 | 10 | 299 | 8.0 | 14.5 | 0.00 | 0.03 | 0.00 | 88 | 1013.1 |
| 20260507065727 | 10 | 299 | 8.0 | 12.9 | 0.00 | 0.03 | 0.00 | 88 | 1013.1 |
| 20260507064724 | 10 | 297 | 8.0 | 12.9 | 0.00 | 0.03 | 0.00 | 88 | 1013.0 |
| 20260507063720 | 10 | 292 | 6.4 | 12.9 | 0.00 | 0.03 | 0.00 | 89 | 1012.8 |
| 20260507062716 | 10 | 296 | 6.4 | 12.9 | 0.00 | 0.03 | 0.00 | 90 | 1012.7 |
| 20260507061733 | 9 | 291 | 4.8 | 9.7 | 0.00 | 0.03 | 0.00 | 91 | 1012.6 |
| 20260507060729 | 9 | 305 | 4.8 | 9.7 | 0.00 | 0.03 | 0.00 | 91 | 1012.5 |
| 20260507055726 | 9 | 303 | 6.4 | 11.3 | 0.00 | 0.03 | 0.00 | 91 | 1012.4 |
| 20260507054722 | 9 | 292 | 6.4 | 11.3 | 0.00 | 0.03 | 0.00 | 92 | 1012.3 |
| 20260507053723 | 9 | 299 | 6.4 | 9.7 | 0.00 | 0.03 | 0.00 | 92 | 1012.2 |
| 20260507052735 | 9 | 303 | 4.8 | 12.9 | 0.00 | 0.03 | 0.00 | 92 | 1012.1 |
| 20260507051731 | 9 | 307 | 4.8 | 9.7 | 0.00 | 0.03 | 0.00 | 93 | 1012.0 |
| 20260507050728 | 9 | 297 | 6.4 | 6.4 | 0.00 | 0.03 | 0.00 | 93 | 1011.8 |
| 20260507045724 | 9 | 303 | 6.4 | 11.3 | 0.00 | 0.03 | 0.00 | 94 | 1011.8 |
| 20260507044721 | 9 | 311 | 4.8 | 9.7 | 0.00 | 0.03 | 0.00 | 94 | 1011.5 |
| 20260507043717 | 9 | 305 | 6.4 | 11.3 | 0.00 | 0.03 | 0.00 | 94 | 1011.4 |
| 20260507042733 | 9 | 299 | 6.4 | 11.3 | 0.00 | 0.03 | 0.00 | 95 | 1011.2 |
| 20260507041730 | 9 | 304 | 6.4 | 9.7 | 0.00 | 0.03 | 0.00 | 95 | 1011.2 |
| 20260507040726 | 9 | 300 | 6.4 | 11.3 | 0.00 | 0.03 | 0.00 | 96 | 1011.1 |
| 20260507035723 | 9 | 290 | 4.8 | 9.7 | 0.00 | 0.03 | 0.00 | 97 | 1011.0 |
| 20260507034720 | 8 | 285 | 4.8 | 9.7 | 0.00 | 0.03 | 0.00 | 97 | 1010.8 |
| 20260507033716 | 9 | 286 | 6.4 | 11.3 | 0.00 | 0.03 | 0.00 | 97 | 1010.9 |
| 20260507032732 | 8 | 282 | 4.8 | 9.7 | 0.00 | 0.05 | 0.00 | 97 | 1010.9 |
| 20260507031729 | 8 | 289 | 6.4 | 11.3 | 0.00 | 0.05 | 0.00 | 97 | 1010.7 |
| 20260507030725 | 8 | 288 | 6.4 | 11.3 | 0.00 | 0.05 | 0.00 | 97 | 1010.7 |
| 20260507025723 | 9 | 296 | 6.4 | 11.3 | 0.00 | 0.05 | 0.00 | 97 | 1010.7 |
| 20260507024719 | 9 | 296 | 6.4 | 11.3 | 0.00 | 0.05 | 0.00 | 96 | 1010.6 |
| 20260507023735 | 9 | 304 | 6.4 | 9.7 | 0.00 | 0.05 | 0.00 | 96 | 1010.7 |
| 20260507022732 | 9 | 293 | 6.4 | 11.3 | 0.00 | 0.05 | 0.00 | 96 | 1010.5 |
| 20260507021728 | 9 | 306 | 6.4 | 11.3 | 0.00 | 0.05 | 0.00 | 96 | 1010.4 |
| 20260507020725 | 9 | 304 | 6.4 | 9.7 | 0.00 | 0.05 | 0.00 | 95 | 1010.4 |
| 20260507015721 | 9 | 315 | 4.8 | 11.3 | 0.00 | 0.05 | 0.00 | 94 | 1010.2 |
| 20260507014717 | 9 | 309 | 6.4 | 9.7 | 0.00 | 0.05 | 0.00 | 94 | 1010.3 |
| 20260507013733 | 10 | 306 | 6.4 | 11.3 | 0.00 | 0.05 | 0.00 | 92 | 1010.3 |
| 20260507012731 | 10 | 301 | 4.8 | 6.4 | 0.00 | 0.05 | 0.00 | 92 | 1010.1 |
| 20260507011727 | 10 | 301 | 4.8 | 9.7 | 0.00 | 0.05 | 0.00 | 91 | 1010.1 |
| 20260507010723 | 10 | 309 | 3.2 | 3.2 | 0.00 | 0.05 | 0.00 | 91 | 1010.1 |
| 20260507005719 | 10 | 302 | 3.2 | 6.4 | 0.00 | 0.05 | 0.00 | 90 | 1010.1 |
| 20260507004736 | 10 | 292 | 3.2 | 6.4 | 0.00 | 0.05 | 0.00 | 89 | 1009.9 |
| 20260507003732 | 10 | 304 | 6.4 | 9.7 | 0.00 | 0.05 | 0.00 | 89 | 1009.9 |
| 20260507002729 | 10 | 317 | 4.8 | 6.4 | 0.00 | 0.08 | 0.00 | 88 | 1009.9 |
| 20260507001725 | 10 | 317 | 8.0 | 12.9 | 0.00 | 0.08 | 0.00 | 88 | 1009.8 |
| 20260507000721 | 10 | 309 | 6.4 | 11.3 | 0.00 | 0.10 | 0.00 | 88 | 1009.8 |
| 20260506235718 | 10 | 316 | 3.2 | 6.4 | 0.00 | 0.13 | 0.00 | 89 | 1009.8 |
| 20260506234734 | 10 | 308 | 6.4 | 11.3 | 0.00 | 0.18 | 0.00 | 89 | 1009.8 |
| 20260506233731 | 10 | 315 | 4.8 | 11.3 | 0.00 | 0.18 | 0.00 | 88 | 1009.8 |
| 20260506232728 | 10 | 315 | 4.8 | 9.7 | 0.00 | 0.20 | 0.00 | 88 | 1009.7 |
| 20260506231724 | 10 | 311 | 8.0 | 14.5 | 0.00 | 0.20 | 0.00 | 88 | 1009.5 |
| 20260506230721 | 10 | 309 | 6.4 | 12.9 | 0.00 | 0.20 | 0.00 | 89 | 1009.5 |
| 20260506225721 | 10 | 306 | 8.0 | 11.3 | 0.00 | 0.20 | 0.00 | 88 | 1009.4 |
| 20260506224734 | 11 | 302 | 9.7 | 16.1 | 0.00 | 0.23 | 0.00 | 88 | 1009.3 |
| 20260506223730 | 11 | 312 | 8.0 | 12.9 | 0.00 | 0.23 | 0.00 | 87 | 1009.3 |
| 20260506222728 | 11 | 308 | 8.0 | 17.7 | 0.00 | 0.23 | 0.00 | 88 | 1009.1 |
| 20260506221728 | 11 | 303 | 8.0 | 12.9 | 0.00 | 0.23 | 0.00 | 88 | 1009.0 |
| 20260506220720 | 11 | 304 | 9.7 | 14.5 | 0.00 | 0.23 | 0.00 | 89 | 1009.0 |
| 20260506215717 | 11 | 303 | 6.4 | 11.3 | 0.00 | 0.23 | 0.23 | 90 | 1009.0 |
| 20260506214733 | 11 | 300 | 6.4 | 11.3 | 0.00 | 0.23 | 0.23 | 91 | 1008.9 |
| 20260506213730 | 11 | 311 | 3.2 | 6.4 | 0.00 | 0.23 | 0.23 | 91 | 1008.9 |
| 20260506212726 | 11 | 323 | 4.8 | 6.4 | 0.00 | 0.23 | 0.23 | 90 | 1008.8 |
| 20260506211723 | 11 | 318 | 4.8 | 9.7 | 0.00 | 0.23 | 0.23 | 90 | 1008.8 |
| 20260506210719 | 11 | 320 | 6.4 | 11.3 | 0.00 | 0.23 | 0.23 | 91 | 1008.6 |
| 20260506205715 | 12 | 323 | 6.4 | 9.7 | 0.00 | 0.23 | 0.23 | 92 | 1008.7 |
| 20260506204733 | 12 | 304 | 6.4 | 9.7 | 0.00 | 0.23 | 0.23 | 92 | 1008.6 |
| 20260506203729 | 12 | 295 | 4.8 | 9.7 | 0.00 | 0.23 | 0.23 | 92 | 1008.6 |
| 20260506202725 | 12 | 294 | 6.4 | 12.9 | 0.00 | 0.23 | 0.23 | 92 | 1008.4 |
| 20260506201721 | 12 | 278 | 4.8 | 6.4 | 0.00 | 0.23 | 0.23 | 92 | 1008.2 |
| 20260506200718 | 12 | 274 | 8.0 | 12.9 | 0.00 | 0.23 | 0.23 | 91 | 1008.2 |
| 20260506195735 | 12 | 271 | 6.4 | 12.9 | 0.00 | 0.23 | 0.23 | 92 | 1008.2 |
| 20260506194731 | 12 | 277 | 4.8 | 9.7 | 0.00 | 0.23 | 0.23 | 92 | 1008.0 |
| 20260506193727 | 12 | 276 | 6.4 | 12.9 | 0.00 | 0.23 | 0.23 | 92 | 1007.8 |
| 20260506192728 | 12 | 290 | 6.4 | 9.7 | 0.00 | 0.23 | 0.23 | 92 | 1007.7 |
| 20260506191720 | 12 | 284 | 8.0 | 11.3 | 0.00 | 0.23 | 0.23 | 92 | 1007.5 |
| 20260506190716 | 12 | 284 | 8.0 | 16.1 | 0.00 | 0.23 | 0.23 | 92 | 1007.5 |
| 20260506185733 | 12 | 300 | 8.0 | 14.5 | 0.00 | 0.23 | 0.23 | 93 | 1007.3 |
| 20260506184741 | 12 | 292 | 3.2 | 4.8 | 0.00 | 0.23 | 0.23 | 94 | 1007.4 |
| 20260506183726 | 12 | 294 | 3.2 | 4.8 | 0.00 | 0.23 | 0.23 | 94 | 1007.1 |
| 20260506182722 | 12 | 311 | 6.4 | 11.3 | 0.00 | 0.23 | 0.23 | 94 | 1006.9 |
| 20260506181719 | 12 | 313 | 8.0 | 14.5 | 0.03 | 0.23 | 0.23 | 93 | 1007.0 |
| 20260506180735 | 13 | 308 | 9.7 | 17.7 | 0.03 | 0.25 | 0.23 | 91 | 1006.9 |
| 20260506175732 | 13 | 297 | 11.3 | 17.7 | 0.03 | 0.25 | 0.23 | 90 | 1006.8 |
| 20260506174728 | 13 | 292 | 9.7 | 14.5 | 0.03 | 0.25 | 0.23 | 91 | 1006.6 |
| 20260506173725 | 13 | 302 | 6.4 | 11.3 | 0.03 | 0.28 | 0.23 | 91 | 1006.4 |
| 20260506172721 | 13 | 303 | 8.0 | 11.3 | 0.03 | 0.28 | 0.23 | 91 | 1006.3 |
| 20260506171717 | 13 | 308 | 11.3 | 22.5 | 0.00 | 0.25 | 0.20 | 89 | 1006.0 |
| 20260506170734 | 15 | 299 | 14.5 | 22.5 | 0.00 | 0.25 | 0.20 | 80 | 1006.0 |
| 20260506165730 | 15 | 286 | 12.9 | 22.5 | 0.00 | 0.25 | 0.20 | 79 | 1006.1 |
| 20260506164727 | 15 | 266 | 11.3 | 17.7 | 0.00 | 0.28 | 0.20 | 78 | 1005.9 |
| 20260506163723 | 15 | 277 | 14.5 | 20.9 | 0.00 | 0.30 | 0.20 | 76 | 1006.0 |
| 20260506162719 | 16 | 280 | 16.1 | 22.5 | 0.00 | 0.33 | 0.20 | 76 | 1006.0 |
| 20260506161716 | 16 | 270 | 14.5 | 24.1 | 0.00 | 0.33 | 0.20 | 75 | 1006.0 |
| 20260506160735 | 16 | 289 | 12.9 | 17.7 | 0.00 | 0.36 | 0.20 | 72 | 1005.8 |
| 20260506155729 | 17 | 288 | 11.3 | 17.7 | 0.00 | 0.38 | 0.20 | 71 | 1005.9 |
| 20260506154725 | 17 | 260 | 11.3 | 17.7 | 0.00 | 0.41 | 0.20 | 70 | 1005.7 |
| 20260506153721 | 17 | 243 | 11.3 | 20.9 | 0.00 | 0.41 | 0.20 | 68 | 1005.6 |
| 20260506152718 | 17 | 240 | 14.5 | 24.1 | 0.00 | 0.41 | 0.20 | 68 | 1005.6 |
| 20260506151738 | 17 | 250 | 12.9 | 17.7 | 0.00 | 0.41 | 0.20 | 67 | 1005.5 |
| 20260506150731 | 17 | 258 | 11.3 | 17.7 | 0.00 | 0.41 | 0.20 | 67 | 1005.5 |
| 20260506145728 | 17 | 244 | 11.3 | 17.7 | 0.00 | 0.41 | 0.20 | 65 | 1005.5 |
| 20260506144724 | 17 | 257 | 8.0 | 14.5 | 0.00 | 0.41 | 0.20 | 66 | 1005.5 |
| 20260506143720 | 17 | 243 | 11.3 | 20.9 | 0.00 | 0.41 | 0.20 | 66 | 1005.6 |
| 20260506142716 | 17 | 246 | 11.3 | 14.5 | 0.00 | 0.41 | 0.20 | 65 | 1005.4 |
| 20260506141733 | 18 | 244 | 11.3 | 14.5 | 0.00 | 0.41 | 0.20 | 65 | 1005.4 |
| 20260506140729 | 18 | 219 | 11.3 | 17.7 | 0.00 | 0.41 | 0.20 | 63 | 1005.5 |
| 20260506135725 | 18 | 261 | 9.7 | 20.9 | 0.00 | 0.41 | 0.20 | 62 | 1005.5 |
| 20260506134727 | 18 | 245 | 14.5 | 22.5 | 0.00 | 0.41 | 0.20 | 61 | 1005.4 |
| 20260506133721 | 18 | 249 | 12.9 | 22.5 | 0.00 | 0.41 | 0.20 | 63 | 1005.5 |
| 20260506132735 | 18 | 244 | 12.9 | 20.9 | 0.00 | 0.41 | 0.20 | 62 | 1005.6 |
| 20260506131731 | 18 | 269 | 11.3 | 24.1 | 0.00 | 0.41 | 0.20 | 61 | 1005.4 |
| 20260506130727 | 18 | 229 | 9.7 | 20.9 | 0.00 | 0.41 | 0.20 | 63 | 1005.5 |
| 20260506125724 | 18 | 244 | 11.3 | 16.1 | 0.00 | 0.41 | 0.20 | 64 | 1005.6 |
| 20260506124720 | 17 | 253 | 12.9 | 22.5 | 0.00 | 0.41 | 0.20 | 66 | 1005.7 |
| 20260506123717 | 17 | 254 | 11.3 | 24.1 | 0.00 | 0.41 | 0.20 | 66 | 1005.8 |